This is the latest recevied weather packets stored in our database for station/object N3PB. If no packets are shown the sender has not sent any weather packets the latest 10 day(s).
| Time | Temp. | Humidity | Pressure | Rain* | Wind** | Luminosity | Snow |
|---|---|---|---|---|---|---|---|
| 1778310998 | 7.22° C | 82% | 1012.8 hPa | 0 mm | - | - | - |
| 1778309498 | 7.22° C | 80% | 1013.3 hPa | 0 mm | - | - | - |
| 1778308602 | 7.22° C | 80% | 1013.5 hPa | 0 mm | - | - | - |
| 1778303501 | 8.33° C | 72% | 1014.7 hPa | 0 mm | - | - | - |
| 1778302898 | 8.89° C | 71% | 1014.8 hPa | 0 mm | - | - | - |
| 1778302000 | 9.44° C | 71% | 1014.7 hPa | 0 mm | - | - | - |
| 1778301397 | 9.44° C | 69% | 1014.7 hPa | 0 mm | - | - | - |
| 1778300797 | 9.44° C | 67% | 1014.7 hPa | 0 mm | - | - | - |
| 1778299901 | 10° C | 65% | 1014.9 hPa | 0 mm | - | - | - |
| 1778299600 | 10° C | 65% | 1014.9 hPa | 0 mm | - | - | - |
| 1778298397 | 10° C | 64% | 1015.1 hPa | 0 mm | - | - | - |
| 1778298098 | 10° C | 64% | 1015.1 hPa | 0 mm | - | - | - |
| 1778297497 | 10° C | 63% | 1015.4 hPa | 0 mm | - | - | - |
| 1778296597 | 10.56° C | 62% | 1015.5 hPa | 0 mm | - | - | - |
| 1778295997 | 10.56° C | 62% | 1015.5 hPa | 0 mm | - | - | - |
| 1778295698 | 10.56° C | 61% | 1015.5 hPa | 0 mm | - | - | - |
| 1778294497 | 11.11° C | 60% | 1015.7 hPa | 0 mm | - | - | - |
| 1778294201 | 11.11° C | 59% | 1015.7 hPa | 0 mm | - | - | - |
| 1778293898 | 11.11° C | 60% | 1015.8 hPa | 0 mm | - | - | - |
| 1778293597 | 11.11° C | 60% | 1015.8 hPa | 0 mm | - | - | - |
| 1778291497 | 12.22° C | 57% | 1015.6 hPa | 0 mm | - | - | - |
| 1778291200 | 12.22° C | 56% | 1015.6 hPa | 0 mm | - | - | - |
| 1778290597 | 12.22° C | 56% | 1015.5 hPa | 0 mm | - | - | - |
| 1778290298 | 12.78° C | 57% | 1015.5 hPa | 0 mm | - | - | - |
| 1778289997 | 12.78° C | 55% | 1015.3 hPa | 0 mm | - | - | - |
* Rain latest hour (hover to see other rain measurements)
** Current wind speed in m/s (hover to see current wind gust speed)